createdAt,value
2023-04-15T00:02:01.010Z,84.33
2023-04-15T00:04:29.049Z,85.06
2023-04-15T00:06:57.213Z,85.35
2023-04-15T00:09:25.038Z,84.91
2023-04-15T00:11:52.870Z,85.20
2023-04-15T00:14:21.107Z,85.22
2023-04-15T00:16:56.133Z,85.60
2023-04-15T00:19:24.213Z,85.70
2023-04-15T00:21:52.070Z,84.77
2023-04-15T00:24:19.936Z,84.73
2023-04-15T00:26:47.819Z,85.36
2023-04-15T00:29:15.864Z,85.05
2023-04-15T00:31:43.722Z,85.01
2023-04-15T00:34:12.960Z,85.10
2023-04-15T00:36:41.221Z,85.14
2023-04-15T00:39:09.239Z,84.98
2023-04-15T00:41:39.201Z,84.52
2023-04-15T00:44:07.620Z,84.50
2023-04-15T00:46:39.143Z,84.79
2023-04-15T00:49:08.486Z,84.87
2023-04-15T00:51:37.973Z,84.70
2023-04-15T00:54:06.758Z,84.64
2023-04-15T00:56:38.052Z,84.81
2023-04-15T00:59:07.094Z,84.66
2023-04-15T01:01:37.004Z,84.66
2023-04-15T01:04:05.897Z,85.36
2023-04-15T01:06:34.255Z,84.92
2023-04-15T01:09:03.965Z,84.86
2023-04-15T01:11:34.607Z,85.42
2023-04-15T01:14:02.881Z,85.11
2023-04-15T01:16:30.966Z,84.86
2023-04-15T01:18:59.354Z,84.88
2023-04-15T01:21:28.147Z,84.48
2023-04-15T01:23:58.427Z,84.41
2023-04-15T01:26:28.248Z,84.55
2023-04-15T01:28:56.428Z,85.03
2023-04-15T01:31:24.401Z,84.66
2023-04-15T01:33:52.802Z,84.91
2023-04-15T01:36:20.725Z,84.86
2023-04-15T01:38:51.985Z,84.70
2023-04-15T01:41:23.631Z,84.71
2023-04-15T01:43:53.263Z,84.34
2023-04-15T01:46:21.163Z,84.64
2023-04-15T01:48:49.132Z,84.80
2023-04-15T01:51:18.773Z,85.26
2023-04-15T01:53:46.830Z,84.81
2023-04-15T01:56:16.862Z,85.28
2023-04-15T01:58:44.829Z,84.14
2023-04-15T02:01:14.685Z,84.42
2023-04-15T02:03:42.782Z,84.07
2023-04-15T02:06:10.781Z,84.30
2023-04-15T02:08:38.719Z,84.23
2023-04-15T02:11:06.703Z,84.02
2023-04-15T02:13:34.597Z,84.32
2023-04-15T02:16:02.694Z,84.35
2023-04-15T02:18:31.948Z,83.80
2023-04-15T02:20:59.980Z,84.41
2023-04-15T02:23:27.816Z,83.81
2023-04-15T02:25:55.757Z,84.46
2023-04-15T02:28:23.640Z,84.29
2023-04-15T02:30:53.332Z,84.51
2023-04-15T02:33:22.837Z,84.55
2023-04-15T02:35:53.229Z,84.36
2023-04-15T02:38:21.075Z,85.09
2023-04-15T02:40:49.743Z,85.10
2023-04-15T02:43:18.322Z,84.49
2023-04-15T02:45:47.080Z,84.58
2023-04-15T02:48:15.429Z,84.77
2023-04-15T02:50:43.407Z,84.51
2023-04-15T02:53:13.430Z,83.83
2023-04-15T02:55:41.313Z,83.93
2023-04-15T02:58:09.390Z,83.30
2023-04-15T03:00:37.262Z,84.08
2023-04-15T03:03:07.084Z,84.13
2023-04-15T03:05:35.120Z,84.30
2023-04-15T03:08:06.627Z,84.47
2023-04-15T03:10:35.848Z,84.52
2023-04-15T03:13:03.720Z,84.65
2023-04-15T03:15:32.156Z,84.37
2023-04-15T03:18:00.142Z,84.59
2023-04-15T03:20:28.060Z,84.99
2023-04-15T03:22:55.915Z,84.42
2023-04-15T03:25:23.864Z,84.78
2023-04-15T03:27:53.282Z,84.33
2023-04-15T03:30:21.515Z,84.46
2023-04-15T03:32:49.492Z,84.64
2023-04-15T03:35:17.563Z,84.53
2023-04-15T03:37:45.438Z,84.21
2023-04-15T03:40:14.085Z,84.27
2023-04-15T03:42:41.984Z,84.47
2023-04-15T03:45:12.457Z,84.77
2023-04-15T03:47:40.620Z,84.69
2023-04-15T03:50:09.493Z,84.99
2023-04-15T03:52:37.477Z,84.94
2023-04-15T03:55:05.980Z,85.20
2023-04-15T03:57:37.985Z,85.06
2023-04-15T04:00:07.292Z,84.70
2023-04-15T04:02:36.715Z,84.79
2023-04-15T04:05:05.128Z,84.40
2023-04-15T04:07:32.999Z,84.77
2023-04-15T04:10:00.894Z,84.18
2023-04-15T04:12:28.749Z,84.79
2023-04-15T04:14:56.815Z,84.96
2023-04-15T04:17:24.697Z,84.80
2023-04-15T04:19:54.158Z,84.59
2023-04-15T04:22:23.908Z,84.91
2023-04-15T04:24:51.773Z,84.85
2023-04-15T04:27:19.603Z,84.55
2023-04-15T04:29:49.894Z,84.44
2023-04-15T04:32:17.991Z,84.30
2023-04-15T04:34:45.879Z,84.35
2023-04-15T04:37:15.359Z,84.12
2023-04-15T04:39:43.196Z,84.43
2023-04-15T04:42:11.141Z,84.14
2023-04-15T04:44:39.139Z,84.42
2023-04-15T04:47:07.647Z,84.59
2023-04-15T04:49:35.637Z,84.40
2023-04-15T04:52:03.783Z,84.39
2023-04-15T04:54:32.974Z,84.00
2023-04-15T04:57:00.842Z,84.77
2023-04-15T04:59:28.762Z,85.20
2023-04-15T05:01:57.099Z,84.67
2023-04-15T05:04:25.089Z,84.22
2023-04-15T05:06:52.984Z,84.17
2023-04-15T05:09:20.851Z,83.89
2023-04-15T05:11:50.102Z,83.57
2023-04-15T05:14:17.939Z,83.70
2023-04-15T05:16:45.832Z,83.35
2023-04-15T05:19:13.704Z,83.50
2023-04-15T05:21:41.673Z,83.77
2023-04-15T05:24:09.883Z,83.02
2023-04-15T05:26:37.759Z,83.47
2023-04-15T05:29:07.094Z,82.90
2023-04-15T05:31:35.233Z,83.62
2023-04-15T05:34:03.450Z,83.20
2023-04-15T05:36:31.927Z,82.83
2023-04-15T05:39:00.125Z,82.28
2023-04-15T05:41:28.195Z,82.34
2023-04-15T05:43:56.204Z,82.35
2023-04-15T05:46:25.436Z,82.15
2023-04-15T05:48:54.715Z,82.37
2023-04-15T05:51:23.909Z,82.33
2023-04-15T05:53:51.872Z,82.31
2023-04-15T05:56:20.382Z,82.50
2023-04-15T05:58:48.300Z,83.06
2023-04-15T06:01:16.238Z,82.60
2023-04-15T06:03:45.701Z,82.43
2023-04-15T06:06:13.628Z,82.92
2023-04-15T06:08:41.568Z,83.11
2023-04-15T06:11:09.525Z,83.01
2023-04-15T06:13:37.410Z,83.83
2023-04-15T06:16:05.610Z,83.61
2023-04-15T06:18:33.527Z,83.35
2023-04-15T06:21:02.943Z,81.92
2023-04-15T06:23:31.162Z,82.05
2023-04-15T06:25:59.015Z,81.42
2023-04-15T06:28:26.909Z,82.31
2023-04-15T06:30:55.645Z,82.10
2023-04-15T06:33:23.550Z,81.86
2023-04-15T06:35:51.430Z,82.42
2023-04-15T06:38:20.740Z,81.39
2023-04-15T06:40:48.687Z,80.39
2023-04-15T06:43:16.597Z,80.55
2023-04-15T06:45:44.644Z,80.86
2023-04-15T06:48:12.755Z,80.08
2023-04-15T06:50:40.691Z,80.50
2023-04-15T06:53:08.880Z,80.81
2023-04-15T06:55:38.138Z,81.04
2023-04-15T06:58:05.949Z,80.86
2023-04-15T07:00:33.990Z,80.98
2023-04-15T07:03:03.683Z,82.13
2023-04-15T07:05:32.394Z,82.01
2023-04-15T07:08:00.469Z,81.83
2023-04-15T07:10:28.370Z,81.16
2023-04-15T07:12:57.752Z,81.78
2023-04-15T07:15:25.645Z,81.99
2023-04-15T07:17:53.535Z,81.05
2023-04-15T07:20:21.472Z,82.15
2023-04-15T07:22:49.501Z,80.92
2023-04-15T07:25:17.727Z,81.01
2023-04-15T07:27:45.712Z,79.62
2023-04-15T07:30:16.358Z,79.76
2023-04-15T07:32:44.351Z,80.67
2023-04-15T07:35:12.268Z,78.96
2023-04-15T07:37:40.293Z,79.62
2023-04-15T07:40:09.449Z,78.97
2023-04-15T07:42:40.752Z,78.90
2023-04-15T07:45:10.092Z,78.58
2023-04-15T07:47:40.867Z,78.05
2023-04-15T07:50:10.665Z,78.15
2023-04-15T07:52:39.566Z,78.24
2023-04-15T07:55:08.672Z,78.35
2023-04-15T07:57:39.081Z,77.27
2023-04-15T08:00:08.334Z,77.46
2023-04-15T08:02:38.181Z,77.61
2023-04-15T08:05:10.760Z,77.34
2023-04-15T08:07:38.941Z,76.76
2023-04-15T08:10:07.784Z,76.72
2023-04-15T08:12:35.689Z,77.14
2023-04-15T08:15:03.688Z,75.87
2023-04-15T08:17:31.602Z,76.31
2023-04-15T08:19:59.564Z,75.69
2023-04-15T08:22:28.797Z,75.46
2023-04-15T08:24:56.696Z,74.80
2023-04-15T08:27:24.686Z,73.81
2023-04-15T08:29:52.574Z,74.92
2023-04-15T08:32:20.569Z,74.16
2023-04-15T08:34:48.458Z,74.17
2023-04-15T08:37:16.433Z,73.14
2023-04-15T08:39:46.325Z,72.44
2023-04-15T08:42:20.555Z,73.67
2023-04-15T08:44:49.529Z,75.24
2023-04-15T08:47:22.763Z,73.14
2023-04-15T08:49:56.409Z,70.92
2023-04-15T08:52:27.067Z,71.70
2023-04-15T08:54:59.738Z,71.50
2023-04-15T08:57:29.090Z,70.65
2023-04-15T08:59:57.937Z,69.70
2023-04-15T09:02:27.815Z,67.25
2023-04-15T09:04:56.752Z,68.87
2023-04-15T09:07:24.744Z,69.33
2023-04-15T09:09:52.934Z,68.40
2023-04-15T09:12:22.421Z,67.96
2023-04-15T09:14:50.418Z,68.30
2023-04-15T09:17:21.808Z,68.41
2023-04-15T09:19:50.032Z,68.12
2023-04-15T09:22:18.124Z,67.79
2023-04-15T09:24:46.529Z,69.36
2023-04-15T09:27:17.831Z,67.72
2023-04-15T09:29:51.565Z,68.16
2023-04-15T09:32:19.649Z,68.03
2023-04-15T09:34:48.123Z,66.95
2023-04-15T09:37:31.536Z,66.90
2023-04-15T09:40:00.113Z,66.73
2023-04-15T09:42:28.753Z,67.23
2023-04-15T09:45:09.957Z,66.76
2023-04-15T09:47:37.848Z,66.21
2023-04-15T09:50:06.477Z,64.68
2023-04-15T09:52:34.396Z,64.32
2023-04-15T09:55:02.651Z,65.07
2023-04-15T09:57:36.329Z,63.13
2023-04-15T10:00:08.102Z,62.49
2023-04-15T10:02:36.874Z,61.82
2023-04-15T10:05:06.105Z,61.46
2023-04-15T10:07:35.157Z,60.12
2023-04-15T10:10:05.386Z,61.51
2023-04-15T10:12:33.621Z,61.16
2023-04-15T10:15:07.225Z,61.11
2023-04-15T10:17:37.271Z,60.97
2023-04-15T10:20:07.717Z,60.20
2023-04-15T10:22:37.422Z,59.75
2023-04-15T10:25:07.486Z,60.05
2023-04-15T10:27:35.641Z,61.11
2023-04-15T10:30:07.003Z,61.04
2023-04-15T10:32:35.384Z,61.20
2023-04-15T10:35:04.257Z,59.68
2023-04-15T10:37:37.204Z,60.98
2023-04-15T10:40:31.285Z,61.58
2023-04-15T10:43:02.126Z,61.34
2023-04-15T10:45:34.957Z,60.66
2023-04-15T10:48:05.073Z,60.64
2023-04-15T10:50:34.337Z,60.33
2023-04-15T10:53:05.272Z,60.74
2023-04-15T10:55:35.367Z,59.78
2023-04-15T10:58:03.897Z,58.46
2023-04-15T11:00:35.688Z,59.22
2023-04-15T11:03:08.579Z,58.04
2023-04-15T11:05:52.310Z,57.99
2023-04-15T11:08:21.225Z,57.84
2023-04-15T11:10:54.907Z,59.90
2023-04-15T11:13:31.384Z,58.49
2023-04-15T11:16:04.285Z,59.87
2023-04-15T11:18:34.468Z,59.06
2023-04-15T11:21:05.321Z,59.61
2023-04-15T11:23:46.966Z,60.29
2023-04-15T11:26:15.817Z,59.22
2023-04-15T11:28:45.880Z,58.98
2023-04-15T11:31:18.140Z,59.55
2023-04-15T11:33:48.207Z,59.89
2023-04-15T11:36:16.196Z,59.53
2023-04-15T11:38:45.869Z,60.48
2023-04-15T11:41:13.952Z,60.71
2023-04-15T11:43:42.287Z,61.45
2023-04-15T11:46:10.259Z,59.95
2023-04-15T11:48:44.502Z,60.40
2023-04-15T11:51:13.748Z,61.76
2023-04-15T11:53:43.977Z,63.74
2023-04-15T11:56:17.877Z,60.43
2023-04-15T11:58:46.456Z,59.51
2023-04-15T12:01:14.604Z,59.24
2023-04-15T12:03:46.920Z,60.64
2023-04-15T12:06:19.314Z,62.47
2023-04-15T12:08:58.445Z,63.00
2023-04-15T12:11:31.919Z,63.02
2023-04-15T12:14:04.117Z,63.62
2023-04-15T12:16:32.285Z,64.48
2023-04-15T12:19:05.411Z,65.27
2023-04-15T12:21:36.756Z,65.15
2023-04-15T12:24:07.394Z,65.09
2023-04-15T12:26:38.652Z,66.13
2023-04-15T12:29:08.499Z,67.17
2023-04-15T12:31:37.765Z,67.08
2023-04-15T12:34:09.881Z,67.97
2023-04-15T12:36:37.805Z,66.43
2023-04-15T12:39:06.241Z,67.02
2023-04-15T12:41:34.784Z,68.14
2023-04-15T12:44:02.860Z,69.21
2023-04-15T12:46:31.104Z,69.57
2023-04-15T12:48:59.332Z,68.88
2023-04-15T12:51:28.595Z,69.49
2023-04-15T12:53:56.439Z,69.40
2023-04-15T12:56:24.649Z,69.19
2023-04-15T12:58:52.633Z,69.91
2023-04-15T13:01:20.613Z,70.64
2023-04-15T13:03:50.463Z,70.88
2023-04-15T13:06:18.462Z,70.34
2023-04-15T13:08:57.445Z,70.19
2023-04-15T13:11:26.305Z,71.30
2023-04-15T13:13:54.294Z,70.53
2023-04-15T13:16:22.253Z,71.56
2023-04-15T13:18:50.630Z,71.45
2023-04-15T13:21:19.499Z,71.09
2023-04-15T13:23:50.858Z,72.30
2023-04-15T13:26:18.769Z,72.09
2023-04-15T13:28:47.126Z,72.15
2023-04-15T13:31:15.257Z,72.79
2023-04-15T13:33:43.145Z,72.64
2023-04-15T13:36:11.250Z,72.96
2023-04-15T13:38:39.152Z,72.72
2023-04-15T13:41:08.493Z,72.79
2023-04-15T13:43:36.616Z,72.65
2023-04-15T13:46:04.793Z,72.21
2023-04-15T13:48:32.684Z,71.84
2023-04-15T13:51:00.751Z,73.35
2023-04-15T13:53:38.166Z,72.34
2023-04-15T13:56:08.911Z,73.13
2023-04-15T13:58:38.307Z,72.21
2023-04-15T14:01:07.638Z,72.34
2023-04-15T14:03:37.097Z,72.75
2023-04-15T14:06:06.204Z,73.05
2023-04-15T14:08:34.270Z,72.39
2023-04-15T14:11:02.158Z,72.80
2023-04-15T14:13:31.436Z,73.40
2023-04-15T14:15:59.495Z,73.55
2023-04-15T14:18:27.481Z,71.75
2023-04-15T14:20:55.590Z,72.38
2023-04-15T14:23:23.519Z,71.64
2023-04-15T14:25:51.862Z,71.81
2023-04-15T14:28:19.774Z,71.57
2023-04-15T14:30:49.040Z,71.65
2023-04-15T14:33:17.296Z,72.01
2023-04-15T14:35:45.278Z,71.81
2023-04-15T14:38:13.219Z,72.35
2023-04-15T14:40:42.643Z,72.66
2023-04-15T14:43:19.609Z,73.37
2023-04-15T14:45:49.032Z,72.57
2023-04-15T14:48:17.319Z,73.83
2023-04-15T14:50:45.279Z,73.81
2023-04-15T14:53:13.174Z,73.67
2023-04-15T14:55:41.175Z,74.18
2023-04-15T14:58:09.462Z,74.72
2023-04-15T15:00:45.611Z,74.72
2023-04-15T15:03:15.271Z,74.95
2023-04-15T15:05:45.244Z,74.84
2023-04-15T15:08:14.269Z,74.41
2023-04-15T15:10:49.490Z,74.70
2023-04-15T15:13:18.985Z,75.73
2023-04-15T15:15:49.287Z,76.09
2023-04-15T15:18:19.786Z,75.83
2023-04-15T15:20:47.998Z,75.37
2023-04-15T15:23:15.966Z,76.48
2023-04-15T15:25:44.461Z,76.71
2023-04-15T15:28:12.901Z,75.85
2023-04-15T15:30:43.212Z,76.41
2023-04-15T15:33:11.096Z,76.53
2023-04-15T15:35:40.970Z,77.18
2023-04-15T15:38:09.011Z,77.15
2023-04-15T15:40:36.839Z,77.77
2023-04-15T15:43:05.380Z,76.96
2023-04-15T15:45:33.299Z,78.39
2023-04-15T15:48:03.077Z,78.25
2023-04-15T15:50:31.080Z,78.40
2023-04-15T15:53:00.437Z,79.52
2023-04-15T15:55:28.427Z,79.95
2023-04-15T15:57:56.437Z,80.48
2023-04-15T16:00:24.376Z,80.87
2023-04-15T16:03:06.706Z,81.45
2023-04-15T16:05:37.375Z,82.79
2023-04-15T16:08:07.504Z,82.60
2023-04-15T16:10:35.480Z,83.61
2023-04-15T16:13:03.935Z,84.46
2023-04-15T16:15:31.835Z,85.82
2023-04-15T16:17:59.790Z,85.64
2023-04-15T16:20:28.389Z,86.08
2023-04-15T16:22:58.313Z,85.63
2023-04-15T16:25:27.612Z,85.35
2023-04-15T16:28:05.551Z,85.36
2023-04-15T16:30:41.283Z,86.86
2023-04-15T16:33:09.553Z,87.47
2023-04-15T16:35:37.503Z,87.21
2023-04-15T16:38:06.405Z,87.48
2023-04-15T16:40:35.856Z,87.58
2023-04-15T16:43:04.277Z,87.36
2023-04-15T16:45:35.125Z,87.76
2023-04-15T16:48:03.098Z,87.23
2023-04-15T16:50:31.448Z,86.89
2023-04-15T16:52:59.323Z,86.91
2023-04-15T16:55:27.726Z,86.86
2023-04-15T16:58:01.868Z,87.63
2023-04-15T17:00:32.830Z,87.74
2023-04-15T17:03:01.752Z,87.70
2023-04-15T17:05:33.320Z,88.15
2023-04-15T17:08:01.350Z,88.29
2023-04-15T17:10:29.457Z,88.78
2023-04-15T17:12:59.297Z,88.55
2023-04-15T17:15:27.774Z,89.21
2023-04-15T17:17:56.247Z,89.33
2023-04-15T17:20:24.230Z,89.87
2023-04-15T17:22:52.148Z,89.81
2023-04-15T17:25:20.025Z,90.31
2023-04-15T17:27:47.900Z,90.35
2023-04-15T17:30:17.186Z,91.27
2023-04-15T17:32:45.331Z,91.20
2023-04-15T17:35:13.431Z,91.50
2023-04-15T17:37:41.448Z,91.44
2023-04-15T17:40:10.255Z,91.37
2023-04-15T17:42:38.104Z,91.24
2023-04-15T17:45:06.945Z,92.00
2023-04-15T17:47:36.430Z,91.54
2023-04-15T17:50:05.047Z,91.83
2023-04-15T17:52:32.982Z,92.14
2023-04-15T17:55:00.996Z,92.01
2023-04-15T17:57:28.958Z,92.58
2023-04-15T17:59:57.058Z,92.78
2023-04-15T18:02:25.098Z,92.17
2023-04-15T18:04:54.537Z,92.80
2023-04-15T18:07:22.563Z,92.91
2023-04-15T18:09:51.620Z,92.94
2023-04-15T18:12:19.569Z,92.54
2023-04-15T18:14:47.421Z,92.84
2023-04-15T18:17:15.560Z,92.49
2023-04-15T18:19:43.548Z,92.71
2023-04-15T18:22:13.043Z,92.89
2023-04-15T18:24:40.919Z,92.71
2023-04-15T18:27:08.892Z,93.43
2023-04-15T18:29:37.247Z,93.64
2023-04-15T18:32:05.249Z,93.34
2023-04-15T18:34:33.208Z,93.25
2023-04-15T18:37:01.613Z,93.19
2023-04-15T18:39:30.876Z,93.21
2023-04-15T18:41:58.773Z,93.42
2023-04-15T18:44:26.683Z,93.18
2023-04-15T18:46:54.937Z,93.82
2023-04-15T18:49:22.859Z,93.92
2023-04-15T18:51:51.370Z,93.61
2023-04-15T18:54:19.341Z,93.45
2023-04-15T18:56:48.707Z,93.52
2023-04-15T18:59:29.291Z,93.57
2023-04-15T19:01:59.820Z,93.56
2023-04-15T19:04:29.387Z,93.24
2023-04-15T19:06:58.875Z,93.28
2023-04-15T19:09:27.434Z,93.29
2023-04-15T19:11:56.904Z,93.50
2023-04-15T19:14:24.986Z,93.68
2023-04-15T19:16:53.028Z,93.87
2023-04-15T19:19:21.231Z,93.67
2023-04-15T19:21:50.298Z,93.64
2023-04-15T19:24:18.912Z,93.67
2023-04-15T19:26:49.880Z,93.72
2023-04-15T19:29:19.698Z,92.99
2023-04-15T19:31:47.595Z,93.11
2023-04-15T19:34:15.627Z,93.47
2023-04-15T19:36:43.882Z,93.89
2023-04-15T19:39:11.910Z,93.92
2023-04-15T19:41:39.939Z,93.61
2023-04-15T19:44:07.906Z,93.08
2023-04-15T19:46:40.227Z,93.95
2023-04-15T19:49:08.299Z,94.00
2023-04-15T19:51:36.293Z,93.53
2023-04-15T19:54:04.244Z,94.30
2023-04-15T19:56:34.243Z,94.02
2023-04-15T19:59:02.815Z,94.00
2023-04-15T20:01:31.039Z,94.05
2023-04-15T20:04:00.977Z,93.05
2023-04-15T20:06:29.506Z,93.89
2023-04-15T20:08:57.500Z,93.60
2023-04-15T20:12:09.283Z,94.27
2023-04-15T20:14:17.751Z,94.26
2023-04-15T20:16:45.819Z,93.73
2023-04-15T20:19:15.184Z,93.56
2023-04-15T20:21:43.446Z,93.58
2023-04-15T20:24:11.562Z,94.16
2023-04-15T20:26:39.555Z,94.24
2023-04-15T20:29:07.923Z,93.54
2023-04-15T20:31:36.513Z,93.46
2023-04-15T20:34:04.594Z,94.40
2023-04-15T20:36:34.353Z,93.88
2023-04-15T20:39:02.366Z,93.57
2023-04-15T20:41:30.463Z,93.86
2023-04-15T20:43:58.391Z,93.88
2023-04-15T20:46:27.694Z,93.60
2023-04-15T20:48:56.114Z,93.62
2023-04-15T20:51:24.011Z,93.22
2023-04-15T20:53:53.282Z,93.57
2023-04-15T20:56:21.169Z,92.81
2023-04-15T20:58:49.083Z,92.93
2023-04-15T21:01:17.093Z,93.17
2023-04-15T21:03:45.189Z,93.27
2023-04-15T21:06:13.185Z,93.27
2023-04-15T21:08:41.175Z,93.27
2023-04-15T21:11:10.631Z,93.01
2023-04-15T21:13:38.548Z,93.51
2023-04-15T21:16:06.658Z,93.24
2023-04-15T21:18:34.664Z,93.25
2023-04-15T21:21:03.663Z,93.93
2023-04-15T21:23:31.865Z,93.72
2023-04-15T21:26:00.205Z,93.22
2023-04-15T21:28:31.151Z,93.31
2023-04-15T21:30:59.237Z,93.67
2023-04-15T21:33:27.634Z,93.62
2023-04-15T21:35:55.831Z,92.96
2023-04-15T21:38:23.721Z,93.76
2023-04-15T21:40:52.415Z,93.83
2023-04-15T21:43:21.590Z,93.11
2023-04-15T21:46:22.952Z,93.11
2023-04-15T21:48:38.771Z,93.54
2023-04-15T21:51:06.887Z,93.67
2023-04-15T21:53:34.927Z,93.55
2023-04-15T21:56:02.794Z,93.39
2023-04-15T21:58:30.802Z,93.74
2023-04-15T22:01:00.505Z,93.68
2023-04-15T22:03:33.365Z,93.40
2023-04-15T22:06:02.308Z,93.72
2023-04-15T22:08:33.604Z,93.22
2023-04-15T22:11:06.882Z,93.33
2023-04-15T22:13:35.191Z,93.44
2023-04-15T22:16:04.452Z,92.92
2023-04-15T22:18:32.327Z,92.86
2023-04-15T22:21:01.550Z,93.35
2023-04-15T22:23:29.413Z,92.86
2023-04-15T22:25:57.255Z,92.85
2023-04-15T22:28:25.193Z,92.71
2023-04-15T22:30:54.543Z,92.91
2023-04-15T22:33:23.924Z,93.03
2023-04-15T22:35:51.947Z,92.86
2023-04-15T22:38:19.811Z,93.27
2023-04-15T22:40:47.985Z,93.28
2023-04-15T22:43:15.927Z,93.36
2023-04-15T22:45:43.832Z,92.80
2023-04-15T22:48:11.739Z,93.10
2023-04-15T22:50:41.171Z,93.54
2023-04-15T22:53:09.116Z,93.05
2023-04-15T22:55:37.085Z,92.80
2023-04-15T22:58:05.031Z,92.51
2023-04-15T23:00:32.934Z,92.88
2023-04-15T23:03:00.920Z,92.85
2023-04-15T23:05:31.539Z,92.67
2023-04-15T23:08:01.000Z,93.03
2023-04-15T23:10:29.884Z,92.58
2023-04-15T23:12:57.809Z,92.84
2023-04-15T23:15:25.980Z,92.48
2023-04-15T23:17:53.861Z,92.61
2023-04-15T23:20:21.900Z,92.47
2023-04-15T23:22:49.815Z,93.05
2023-04-15T23:25:20.468Z,92.53
2023-04-15T23:27:48.307Z,93.29
2023-04-15T23:30:16.358Z,93.18
2023-04-15T23:32:44.273Z,93.11
2023-04-15T23:35:15.236Z,93.37
2023-04-15T23:37:43.059Z,93.23
2023-04-15T23:40:12.270Z,93.62
2023-04-15T23:42:41.479Z,93.96
2023-04-15T23:45:13.017Z,93.35
2023-04-15T23:47:41.524Z,94.08
2023-04-15T23:50:10.165Z,94.00
2023-04-15T23:52:38.076Z,94.17
2023-04-15T23:55:06.767Z,93.57
2023-04-15T23:57:34.623Z,93.51
